Time;durP1;ratioP1;P1;durP2;ratioP2;P2;SDS_P1;SDS_P2;PMS_P1;PMS_P2;Temp;Humidity;BMP_temperature;BMP_pressure;BME280_temperature;BME280_humidity;BME280_pressure;Samples;Min_cycle;Max_cycle;Signal;HPM_P1;HPM_P2
2023/05/11 00:01:38;;;;;;;29.73;16.83;;;;;;;;;;5013168;28;94302;-66
2023/05/11 00:04:04;;;;;;;30.20;15.65;;;;;;;;;;5005449;28;95881;-66
2023/05/11 00:06:31;;;;;;;36.97;18.05;;;;;;;;;;4993125;28;94688;-66
2023/05/11 00:08:57;;;;;;;28.30;16.80;;;;;;;;;;4993847;28;93464;-66
2023/05/11 00:11:23;;;;;;;36.35;17.67;;;;;;;;;;5012556;28;92446;-66
2023/05/11 00:13:50;;;;;;;33.38;17.50;;;;;;;;;;5013592;28;93290;-66
2023/05/11 00:16:16;;;;;;;30.45;17.50;;;;;;;;;;5006157;28;94508;-66
2023/05/11 00:18:42;;;;;;;30.23;17.20;;;;;;;;;;5015591;28;95427;-66
2023/05/11 00:21:09;;;;;;;33.15;17.15;;;;;;;;;;5008052;28;94245;-66
2023/05/11 00:23:35;;;;;;;34.45;17.60;;;;;;;;;;5011319;28;93578;-66
2023/05/11 00:26:02;;;;;;;32.28;17.65;;;;;;;;;;5018912;28;92363;-66
2023/05/11 00:28:28;;;;;;;31.90;17.40;;;;;;;;;;4995243;28;94795;-66
2023/05/11 00:30:57;;;;;;;38.72;17.77;;;;;;;;;;4996488;28;92501;-66
2023/05/11 00:33:23;;;;;;;33.78;17.52;;;;;;;;;;4996772;28;93637;-66
2023/05/11 00:35:50;;;;;;;38.80;18.30;;;;;;;;;;4997363;28;93502;-67
2023/05/11 00:38:16;;;;;;;33.90;17.45;;;;;;;;;;5011992;28;92513;-67
2023/05/11 00:40:43;;;;;;;36.42;17.08;;;;;;;;;;5027079;27;93113;-67
2023/05/11 00:43:09;;;;;;;36.40;18.05;;;;;;;;;;5007177;28;94417;-66
2023/05/11 00:45:36;;;;;;;35.25;18.20;;;;;;;;;;5001598;27;93096;-66
2023/05/11 00:48:02;;;;;;;33.92;18.75;;;;;;;;;;4999629;28;93062;-66
2023/05/11 00:50:29;;;;;;;32.83;18.00;;;;;;;;;;5012256;28;93813;-66
2023/05/11 00:52:56;;;;;;;35.30;18.98;;;;;;;;;;5012080;28;95091;-66
2023/05/11 00:55:23;;;;;;;34.20;18.30;;;;;;;;;;4997772;28;93815;-66
2023/05/11 00:57:49;;;;;;;34.42;18.17;;;;;;;;;;5013983;28;93992;-66
2023/05/11 01:00:16;;;;;;;31.33;18.20;;;;;;;;;;5003872;28;94668;-66
2023/05/11 01:02:42;;;;;;;35.03;18.60;;;;;;;;;;5010939;28;93466;-66
2023/05/11 01:05:09;;;;;;;34.90;17.80;;;;;;;;;;5015077;28;92488;-66
2023/05/11 01:07:37;;;;;;;37.00;18.00;;;;;;;;;;5015411;28;94691;-66
2023/05/11 01:10:04;;;;;;;29.42;16.67;;;;;;;;;;5018717;28;92604;-66
2023/05/11 01:12:45;;;;;;;31.42;17.65;;;;;;;;;;5014709;28;93955;-66
2023/05/11 01:15:13;;;;;;;39.10;18.67;;;;;;;;;;5015513;28;94776;-66
2023/05/11 01:17:39;;;;;;;35.05;18.50;;;;;;;;;;5005246;28;94915;-66
2023/05/11 01:20:08;;;;;;;40.00;19.70;;;;;;;;;;4994901;28;96064;-66
2023/05/11 01:22:48;;;;;;;38.67;19.30;;;;;;;;;;5001008;28;93691;-66
2023/05/11 01:25:14;;;;;;;47.03;21.07;;;;;;;;;;5014966;28;92673;-66
2023/05/11 01:27:43;;;;;;;37.50;19.55;;;;;;;;;;5015061;28;93185;-66
2023/05/11 01:30:12;;;;;;;42.15;20.77;;;;;;;;;;4997147;28;93581;-66
2023/05/11 01:32:39;;;;;;;43.90;19.42;;;;;;;;;;5010602;28;92416;-65
2023/05/11 01:35:13;;;;;;;42.45;19.60;;;;;;;;;;5010723;28;92378;-66
2023/05/11 01:37:40;;;;;;;36.00;18.70;;;;;;;;;;4994683;28;93048;-66
2023/05/11 01:40:11;;;;;;;41.78;20.70;;;;;;;;;;4994847;28;94393;-66
2023/05/11 01:42:40;;;;;;;39.03;19.95;;;;;;;;;;5007093;28;96206;-66
2023/05/11 01:45:07;;;;;;;42.88;20.30;;;;;;;;;;4996660;28;92757;-66
2023/05/11 01:47:34;;;;;;;48.50;22.02;;;;;;;;;;5009399;28;93143;-66
2023/05/11 01:50:02;;;;;;;43.67;20.73;;;;;;;;;;5006104;28;93978;-66
2023/05/11 01:52:29;;;;;;;41.50;21.13;;;;;;;;;;4998056;28;92423;-66
2023/05/11 01:54:56;;;;;;;51.40;22.30;;;;;;;;;;4997194;28;94420;-66
2023/05/11 01:57:23;;;;;;;41.25;20.80;;;;;;;;;;5011117;28;92498;-66
2023/05/11 01:59:51;;;;;;;48.35;21.30;;;;;;;;;;5008553;28;93714;-66
2023/05/11 02:02:17;;;;;;;42.25;20.80;;;;;;;;;;5005107;28;93349;-66
2023/05/11 02:04:44;;;;;;;47.55;21.73;;;;;;;;;;4994805;28;92877;-66
2023/05/11 02:07:11;;;;;;;38.30;20.52;;;;;;;;;;4993182;28;94914;-66
2023/05/11 02:09:38;;;;;;;39.33;20.15;;;;;;;;;;4995007;28;95079;-66
2023/05/11 02:12:05;;;;;;;42.05;20.95;;;;;;;;;;4994107;28;92714;-66
2023/05/11 02:14:33;;;;;;;40.60;21.33;;;;;;;;;;4997535;28;93434;-66
2023/05/11 02:17:01;;;;;;;38.58;20.67;;;;;;;;;;5002633;28;92479;-66
2023/05/11 02:19:28;;;;;;;47.88;23.25;;;;;;;;;;5011907;28;94335;-67
2023/05/11 02:21:55;;;;;;;43.47;22.48;;;;;;;;;;5001001;28;93448;-67
2023/05/11 02:24:22;;;;;;;43.17;21.70;;;;;;;;;;5014776;28;91747;-67
2023/05/11 02:26:49;;;;;;;49.03;22.98;;;;;;;;;;5012610;28;92528;-67
2023/05/11 02:29:15;;;;;;;46.63;23.05;;;;;;;;;;5013823;28;93384;-67
2023/05/11 02:31:43;;;;;;;48.50;23.35;;;;;;;;;;5012248;28;94919;-67
2023/05/11 02:34:19;;;;;;;44.00;21.92;;;;;;;;;;5014479;28;96678;-67
2023/05/11 02:36:50;;;;;;;49.72;23.65;;;;;;;;;;5023363;27;93688;-66
2023/05/11 02:39:17;;;;;;;;;;;;;;;;;;5023742;28;93214;-67
2023/05/11 02:41:45;;;;;;;49.95;22.33;;;;;;;;;;5010221;28;124162;-66
2023/05/11 02:44:13;;;;;;;48.30;22.95;;;;;;;;;;5011656;28;92478;-67
2023/05/11 02:46:41;;;;;;;53.38;23.55;;;;;;;;;;5007645;28;94423;-67
2023/05/11 02:49:09;;;;;;;48.30;21.48;;;;;;;;;;5013395;28;92568;-67
2023/05/11 02:51:36;;;;;;;47.60;21.95;;;;;;;;;;4993209;28;92521;-67
2023/05/11 02:54:05;;;;;;;45.75;22.52;;;;;;;;;;4993700;28;94306;-67
2023/05/11 02:56:32;;;;;;;43.67;21.20;;;;;;;;;;5008056;28;97275;-66
2023/05/11 02:58:59;;;;;;;50.10;22.30;;;;;;;;;;5028469;28;92715;-67
2023/05/11 03:01:26;;;;;;;51.92;22.50;;;;;;;;;;5006641;28;93342;-67
2023/05/11 03:03:56;;;;;;;51.50;21.90;;;;;;;;;;5010029;28;92618;-67
2023/05/11 03:06:22;;;;;;;52.60;22.27;;;;;;;;;;5011876;28;94244;-67
2023/05/11 03:08:48;;;;;;;40.53;20.77;;;;;;;;;;5011878;28;92468;-67
2023/05/11 03:11:16;;;;;;;49.72;21.90;;;;;;;;;;5006335;28;96052;-67
2023/05/11 03:13:43;;;;;;;47.10;22.40;;;;;;;;;;4998525;28;94176;-66
2023/05/11 03:16:12;;;;;;;48.20;22.65;;;;;;;;;;5010363;28;93370;-66
2023/05/11 03:18:39;;;;;;;49.20;23.05;;;;;;;;;;4998026;28;92540;-66
2023/05/11 03:21:05;;;;;;;44.67;21.77;;;;;;;;;;5013303;28;94860;-66
2023/05/11 03:23:33;;;;;;;48.90;22.88;;;;;;;;;;5013264;28;92822;-66
2023/05/11 03:26:00;;;;;;;48.47;22.63;;;;;;;;;;5008571;28;93471;-66
2023/05/11 03:28:26;;;;;;;52.15;23.15;;;;;;;;;;5013348;28;93347;-66
2023/05/11 03:30:53;;;;;;;46.35;22.67;;;;;;;;;;5011170;28;92664;-66
2023/05/11 03:33:19;;;;;;;48.63;22.02;;;;;;;;;;5008713;28;95701;-66
2023/05/11 03:35:47;;;;;;;45.05;22.42;;;;;;;;;;4999876;28;93541;-66
2023/05/11 03:38:14;;;;;;;46.75;23.40;;;;;;;;;;4994650;28;94183;-66
2023/05/11 03:40:41;;;;;;;48.90;23.38;;;;;;;;;;5027850;28;93084;-66
2023/05/11 03:43:10;;;;;;;50.85;24.85;;;;;;;;;;5006425;27;93462;-66
2023/05/11 03:45:36;;;;;;;45.63;22.88;;;;;;;;;;5011245;28;95727;-66
2023/05/11 03:48:03;;;;;;;51.05;22.48;;;;;;;;;;4998410;28;93265;-66
2023/05/11 03:50:30;;;;;;;47.72;22.80;;;;;;;;;;5008499;28;92664;-66
2023/05/11 03:52:58;;;;;;;47.60;21.98;;;;;;;;;;5013572;28;92990;-66
2023/05/11 03:55:25;;;;;;;49.10;22.75;;;;;;;;;;5014786;28;93363;-66
2023/05/11 03:57:52;;;;;;;49.67;23.70;;;;;;;;;;5014838;28;92446;-66
2023/05/11 04:00:18;;;;;;;45.95;21.88;;;;;;;;;;5011056;28;93511;-66
2023/05/11 04:02:45;;;;;;;55.17;23.95;;;;;;;;;;5011419;28;92952;-66
2023/05/11 04:05:12;;;;;;;52.65;23.85;;;;;;;;;;5015098;28;94033;-66
2023/05/11 04:07:38;;;;;;;46.88;23.50;;;;;;;;;;4999559;28;93804;-66
2023/05/11 04:10:05;;;;;;;51.55;24.00;;;;;;;;;;4994247;28;94839;-66
2023/05/11 04:12:31;;;;;;;49.67;23.98;;;;;;;;;;5006064;28;95590;-66
2023/05/11 04:14:57;;;;;;;54.53;25.00;;;;;;;;;;5011705;28;94808;-66
2023/05/11 04:17:24;;;;;;;54.78;25.08;;;;;;;;;;5014182;28;92399;-66
2023/05/11 04:19:50;;;;;;;53.53;24.70;;;;;;;;;;5013082;28;94103;-66
2023/05/11 04:22:17;;;;;;;46.78;22.45;;;;;;;;;;5014221;28;94561;-66
2023/05/11 04:24:43;;;;;;;52.22;25.08;;;;;;;;;;5016040;28;92632;-66
2023/05/11 04:27:09;;;;;;;57.05;24.73;;;;;;;;;;5006192;28;92812;-66
2023/05/11 04:29:36;;;;;;;58.50;25.55;;;;;;;;;;5014276;28;92520;-66
2023/05/11 04:32:02;;;;;;;64.60;26.77;;;;;;;;;;5014522;28;93583;-66
2023/05/11 04:34:28;;;;;;;61.75;27.67;;;;;;;;;;5012360;28;96847;-66
2023/05/11 04:36:55;;;;;;;61.08;25.95;;;;;;;;;;5012905;28;92509;-66
2023/05/11 04:39:21;;;;;;;54.85;24.45;;;;;;;;;;5016311;28;94439;-66
2023/05/11 04:41:47;;;;;;;67.22;25.00;;;;;;;;;;5003234;28;93785;-66
2023/05/11 04:44:13;;;;;;;65.60;25.98;;;;;;;;;;5027509;28;92467;-66
2023/05/11 04:46:40;;;;;;;60.95;22.63;;;;;;;;;;5001257;28;94214;-66
2023/05/11 04:49:07;;;;;;;53.25;22.38;;;;;;;;;;4997469;28;92423;-66
2023/05/11 04:51:33;;;;;;;61.63;22.08;;;;;;;;;;5011039;28;93333;-66
2023/05/11 04:53:59;;;;;;;52.75;21.50;;;;;;;;;;4999654;28;94468;-66
2023/05/11 04:56:26;;;;;;;43.47;20.33;;;;;;;;;;5002782;28;92831;-66
2023/05/11 04:58:52;;;;;;;39.65;20.40;;;;;;;;;;4994074;28;94831;-68
2023/05/11 05:01:18;;;;;;;43.65;20.70;;;;;;;;;;5007294;28;93241;-66
2023/05/11 05:03:47;;;;;;;45.00;20.17;;;;;;;;;;4994616;28;92588;-66
2023/05/11 05:06:13;;;;;;;45.70;21.30;;;;;;;;;;4995900;28;94284;-66
2023/05/11 05:08:39;;;;;;;38.88;20.42;;;;;;;;;;5014242;28;94392;-66
2023/05/11 05:11:05;;;;;;;35.95;19.40;;;;;;;;;;5016768;28;93284;-66
2023/05/11 05:13:32;;;;;;;35.22;18.35;;;;;;;;;;5014693;28;93125;-66
2023/05/11 05:15:58;;;;;;;40.30;21.25;;;;;;;;;;5007274;28;91763;-66
2023/05/11 05:18:24;;;;;;;45.10;22.30;;;;;;;;;;4995555;28;92569;-66
2023/05/11 05:20:51;;;;;;;44.78;21.13;;;;;;;;;;5013162;28;93395;-66
2023/05/11 05:23:17;;;;;;;52.05;22.92;;;;;;;;;;5007280;28;94919;-66
2023/05/11 05:25:43;;;;;;;47.25;21.23;;;;;;;;;;4999537;28;95578;-66
2023/05/11 05:28:10;;;;;;;45.13;21.75;;;;;;;;;;4997156;28;94695;-66
2023/05/11 05:30:36;;;;;;;47.17;22.42;;;;;;;;;;5004197;28;92785;-66
2023/05/11 05:33:02;;;;;;;38.67;20.58;;;;;;;;;;5011579;28;94905;-68
2023/05/11 05:35:29;;;;;;;32.80;19.23;;;;;;;;;;5011437;28;92432;-67
2023/05/11 05:37:55;;;;;;;32.25;16.98;;;;;;;;;;5010227;28;93281;-66
2023/05/11 05:40:21;;;;;;;32.25;17.70;;;;;;;;;;5025251;27;93359;-66
2023/05/11 05:42:48;;;;;;;33.47;18.38;;;;;;;;;;5013068;28;92596;-66
2023/05/11 05:45:14;;;;;;;32.90;18.23;;;;;;;;;;5007273;28;94305;-66
2023/05/11 05:47:40;;;;;;;34.60;16.83;;;;;;;;;;5005438;27;97183;-66
2023/05/11 05:50:07;;;;;;;38.00;19.83;;;;;;;;;;4995234;28;92516;-66
2023/05/11 05:52:34;;;;;;;44.50;20.38;;;;;;;;;;5002519;28;93062;-66
2023/05/11 05:55:00;;;;;;;37.50;19.65;;;;;;;;;;5014306;28;92469;-66
2023/05/11 05:57:29;;;;;;;38.17;20.08;;;;;;;;;;4998368;28;94292;-66
2023/05/11 05:59:55;;;;;;;38.40;19.17;;;;;;;;;;4999115;28;94569;-66
2023/05/11 06:02:21;;;;;;;44.67;20.60;;;;;;;;;;5012633;28;92742;-65
2023/05/11 06:04:48;;;;;;;44.33;22.13;;;;;;;;;;5015071;28;94304;-66
2023/05/11 06:07:14;;;;;;;43.50;22.00;;;;;;;;;;5004298;28;95394;-66
2023/05/11 06:09:41;;;;;;;46.90;22.20;;;;;;;;;;4994361;28;92618;-66
2023/05/11 06:12:08;;;;;;;43.22;21.13;;;;;;;;;;4995900;28;94759;-67
2023/05/11 06:14:35;;;;;;;44.83;22.25;;;;;;;;;;4994297;28;92510;-67
2023/05/11 06:17:01;;;;;;;40.25;20.25;;;;;;;;;;4996400;28;93524;-67
2023/05/11 06:19:28;;;;;;;39.17;20.35;;;;;;;;;;4995026;28;94062;-66
2023/05/11 06:21:54;;;;;;;37.35;20.10;;;;;;;;;;4994136;28;92468;-66
2023/05/11 06:24:21;;;;;;;36.72;20.35;;;;;;;;;;5002556;28;93268;-65
2023/05/11 06:26:47;;;;;;;33.95;19.35;;;;;;;;;;4994134;28;93435;-66
2023/05/11 06:29:13;;;;;;;38.47;20.33;;;;;;;;;;5016186;28;91723;-66
2023/05/11 06:31:40;;;;;;;40.85;20.38;;;;;;;;;;5012396;27;92541;-66
2023/05/11 06:34:08;;;;;;;35.08;19.88;;;;;;;;;;5017229;28;94954;-66
2023/05/11 06:36:34;;;;;;;45.40;23.20;;;;;;;;;;5010764;28;95155;-66
2023/05/11 06:39:00;;;;;;;42.25;21.60;;;;;;;;;;5010434;27;93399;-67
2023/05/11 06:41:26;;;;;;;40.60;20.98;;;;;;;;;;5010914;28;92427;-66
2023/05/11 06:43:53;;;;;;;40.83;21.65;;;;;;;;;;5004630;28;93150;-67
2023/05/11 06:46:19;;;;;;;46.30;22.15;;;;;;;;;;5006795;28;94438;-66
2023/05/11 06:48:45;;;;;;;39.03;22.05;;;;;;;;;;5007399;28;92516;-66
2023/05/11 06:51:12;;;;;;;43.03;23.13;;;;;;;;;;5013322;28;93415;-67
2023/05/11 06:53:38;;;;;;;34.97;19.63;;;;;;;;;;5003964;28;93035;-66
2023/05/11 06:56:05;;;;;;;32.28;18.50;;;;;;;;;;5015207;28;92454;-66
2023/05/11 06:58:31;;;;;;;34.85;19.17;;;;;;;;;;5012958;28;93371;-66
2023/05/11 07:00:57;;;;;;;34.28;18.63;;;;;;;;;;5015191;28;94823;-66
2023/05/11 07:03:24;;;;;;;35.33;18.48;;;;;;;;;;5010639;28;95716;-67
2023/05/11 07:05:50;;;;;;;30.52;18.08;;;;;;;;;;5012946;28;93267;-66
2023/05/11 07:08:16;;;;;;;29.65;16.65;;;;;;;;;;5013611;28;92467;-65
2023/05/11 07:10:43;;;;;;;21.25;12.65;;;;;;;;;;5008622;28;94234;-66
2023/05/11 07:13:09;;;;;;;20.00;10.63;;;;;;;;;;5011808;28;93397;-67
2023/05/11 07:15:36;;;;;;;18.48;11.75;;;;;;;;;;5009322;28;93271;-66
2023/05/11 07:18:02;;;;;;;19.73;11.82;;;;;;;;;;5007472;28;93226;-67
2023/05/11 07:20:29;;;;;;;21.52;12.00;;;;;;;;;;4991248;28;92486;-66
2023/05/11 07:22:57;;;;;;;15.70;10.32;;;;;;;;;;5001603;28;94343;-66
2023/05/11 07:25:24;;;;;;;16.95;11.32;;;;;;;;;;4999740;28;95969;-67
2023/05/11 07:27:50;;;;;;;13.65;8.65;;;;;;;;;;4997531;28;93804;-66
2023/05/11 07:30:16;;;;;;;9.82;6.90;;;;;;;;;;5013078;28;93070;-66
2023/05/11 07:32:44;;;;;;;11.77;7.22;;;;;;;;;;5011020;28;94710;-66
2023/05/11 07:35:10;;;;;;;8.80;5.68;;;;;;;;;;4997578;28;92420;-65
2023/05/11 07:37:36;;;;;;;10.75;6.05;;;;;;;;;;5007589;28;93188;-66
2023/05/11 07:40:03;;;;;;;8.65;5.95;;;;;;;;;;5018727;28;93163;-66
2023/05/11 07:42:29;;;;;;;13.98;7.43;;;;;;;;;;5007586;28;94372;-65
2023/05/11 07:44:56;;;;;;;10.63;6.97;;;;;;;;;;4997538;28;92623;-65
2023/05/11 07:47:22;;;;;;;11.80;7.72;;;;;;;;;;4999707;28;92535;-65
2023/05/11 07:49:49;;;;;;;10.20;7.00;;;;;;;;;;5021466;27;96440;-66
2023/05/11 07:52:15;;;;;;;10.68;6.90;;;;;;;;;;5011226;28;93441;-66
2023/05/11 07:54:42;;;;;;;10.27;7.10;;;;;;;;;;5010866;28;93041;-67
2023/05/11 07:57:10;;;;;;;8.15;6.18;;;;;;;;;;5004967;28;93136;-66
2023/05/11 07:59:36;;;;;;;9.05;6.57;;;;;;;;;;5011971;28;93451;-66
2023/05/11 08:02:04;;;;;;;10.07;7.00;;;;;;;;;;5015049;28;92615;-66
2023/05/11 08:04:31;;;;;;;11.88;6.82;;;;;;;;;;5009108;28;94339;-65
2023/05/11 08:06:57;;;;;;;9.65;7.20;;;;;;;;;;4993543;28;91735;-65
2023/05/11 08:09:24;;;;;;;14.10;8.55;;;;;;;;;;5006475;28;94446;-66
2023/05/11 08:11:50;;;;;;;9.30;7.38;;;;;;;;;;5013227;28;93440;-65
2023/05/11 08:14:17;;;;;;;14.35;7.85;;;;;;;;;;5011833;28;94951;-66
2023/05/11 08:16:43;;;;;;;10.75;7.35;;;;;;;;;;5001908;28;95520;-66
2023/05/11 08:19:11;;;;;;;16.08;8.90;;;;;;;;;;5013413;28;93677;-66
2023/05/11 08:21:38;;;;;;;11.70;8.27;;;;;;;;;;5031818;28;93001;-65
2023/05/11 08:24:04;;;;;;;11.30;8.00;;;;;;;;;;5011417;28;93441;-65
2023/05/11 08:26:32;;;;;;;14.35;10.23;;;;;;;;;;5021806;27;92543;-65
2023/05/11 08:28:58;;;;;;;13.95;8.40;;;;;;;;;;4998215;28;93378;-65
2023/05/11 08:31:24;;;;;;;13.63;8.27;;;;;;;;;;4992869;28;92707;-65
2023/05/11 08:33:51;;;;;;;11.55;7.97;;;;;;;;;;5001124;28;93146;-65
2023/05/11 08:36:17;;;;;;;14.32;8.75;;;;;;;;;;5010854;28;93257;-65
2023/05/11 08:38:43;;;;;;;15.35;9.18;;;;;;;;;;5003818;28;96224;-65
2023/05/11 08:41:13;;;;;;;13.75;9.18;;;;;;;;;;5015387;28;92922;-66
2023/05/11 08:43:39;;;;;;;13.43;8.80;;;;;;;;;;5007169;28;94552;-66
2023/05/11 08:46:07;;;;;;;14.73;10.80;;;;;;;;;;5012228;28;92509;-66
2023/05/11 08:48:33;;;;;;;13.65;10.63;;;;;;;;;;5015691;28;93485;-65
2023/05/11 08:51:03;;;;;;;18.95;11.48;;;;;;;;;;5012613;28;93549;-66
2023/05/11 08:53:29;;;;;;;17.83;11.07;;;;;;;;;;5008986;28;92704;-66
2023/05/11 08:55:57;;;;;;;13.98;10.48;;;;;;;;;;5015799;28;93297;-65
2023/05/11 08:58:23;;;;;;;12.38;10.00;;;;;;;;;;4998195;28;93575;-65
2023/05/11 09:00:50;;;;;;;20.60;11.95;;;;;;;;;;4998086;28;93694;-65
2023/05/11 09:03:16;;;;;;;14.85;11.82;;;;;;;;;;4994139;28;94885;-66
2023/05/11 09:05:45;;;;;;;17.50;12.90;;;;;;;;;;4999320;28;93568;-65
2023/05/11 09:08:12;;;;;;;23.25;14.20;;;;;;;;;;4994943;28;93191;-65
2023/05/11 09:10:38;;;;;;;20.08;14.30;;;;;;;;;;4995127;28;93474;-65
2023/05/11 09:13:05;;;;;;;20.50;13.43;;;;;;;;;;4994856;28;92474;-65
2023/05/11 09:15:31;;;;;;;21.02;15.07;;;;;;;;;;4997483;28;94206;-65
2023/05/11 09:18:03;;;;;;;21.70;15.27;;;;;;;;;;5008565;28;95799;-65
2023/05/11 09:20:31;;;;;;;30.48;15.43;;;;;;;;;;4995151;28;92134;-65
2023/05/11 09:22:57;;;;;;;21.35;15.40;;;;;;;;;;5003574;28;92358;-65
2023/05/11 09:25:24;;;;;;;25.48;16.63;;;;;;;;;;5006126;28;94014;-66
2023/05/11 09:27:51;;;;;;;24.75;16.40;;;;;;;;;;5016192;28;94898;-65
2023/05/11 09:30:19;;;;;;;23.10;16.00;;;;;;;;;;5014695;28;93421;-66
2023/05/11 09:32:50;;;;;;;22.40;15.88;;;;;;;;;;5015020;28;92609;-66
2023/05/11 09:35:24;;;;;;;22.95;16.10;;;;;;;;;;4999905;28;93595;-66
2023/05/11 09:38:10;;;;;;;20.90;14.50;;;;;;;;;;4994728;28;94620;-66
2023/05/11 09:40:38;;;;;;;22.58;16.10;;;;;;;;;;4994671;28;92449;-66
2023/05/11 09:43:24;;;;;;;23.77;15.07;;;;;;;;;;4994144;28;93381;-66
2023/05/11 09:45:52;;;;;;;19.33;13.32;;;;;;;;;;4995003;28;92904;-66
2023/05/11 09:48:18;;;;;;;20.15;13.68;;;;;;;;;;5013109;28;92745;-66
2023/05/11 09:50:45;;;;;;;19.25;12.95;;;;;;;;;;5016849;28;93523;-66
2023/05/11 09:53:11;;;;;;;18.80;12.45;;;;;;;;;;4996431;28;95006;-66
2023/05/11 09:55:37;;;;;;;20.38;13.50;;;;;;;;;;4994454;28;95617;-66
2023/05/11 09:58:04;;;;;;;21.70;13.60;;;;;;;;;;5008288;28;93474;-64
2023/05/11 10:00:31;;;;;;;23.73;16.20;;;;;;;;;;5009561;28;93044;-66
2023/05/11 10:02:58;;;;;;;23.35;15.80;;;;;;;;;;5013612;28;93676;-66
2023/05/11 10:05:25;;;;;;;18.63;13.10;;;;;;;;;;5027741;27;93401;-65
2023/05/11 10:07:58;;;;;;;19.02;12.88;;;;;;;;;;5029639;28;92530;-66
2023/05/11 10:10:27;;;;;;;18.83;12.93;;;;;;;;;;5017539;28;93403;-66
2023/05/11 10:12:53;;;;;;;14.10;11.10;;;;;;;;;;5022898;27;92666;-66
2023/05/11 10:15:24;;;;;;;22.02;13.30;;;;;;;;;;5005081;28;93156;-66
2023/05/11 10:17:52;;;;;;;21.40;14.55;;;;;;;;;;5012428;28;96835;-66
2023/05/11 10:20:19;;;;;;;20.75;14.13;;;;;;;;;;5003761;28;92522;-66
2023/05/11 10:22:46;;;;;;;27.88;16.00;;;;;;;;;;5004258;28;93297;-67
2023/05/11 10:25:13;;;;;;;25.42;14.65;;;;;;;;;;5007669;28;93409;-64
2023/05/11 10:27:39;;;;;;;29.13;17.42;;;;;;;;;;5012418;28;92457;-64
2023/05/11 10:30:06;;;;;;;25.67;16.80;;;;;;;;;;5012278;28;93123;-65
2023/05/11 10:32:36;;;;;;;23.70;15.85;;;;;;;;;;5008489;28;92594;-64
2023/05/11 10:35:03;;;;;;;19.30;15.13;;;;;;;;;;5009688;28;93227;-65
2023/05/11 10:37:30;;;;;;;21.75;13.93;;;;;;;;;;5002098;28;93545;-64
2023/05/11 10:39:57;;;;;;;21.85;12.85;;;;;;;;;;4993943;28;92606;-64
2023/05/11 10:42:42;;;;;;;21.35;14.23;;;;;;;;;;4999376;28;96020;-64
2023/05/11 10:45:08;;;;;;;22.45;16.25;;;;;;;;;;5011698;28;92466;-65
2023/05/11 10:47:54;;;;;;;18.92;12.90;;;;;;;;;;5006970;28;92602;-64
2023/05/11 10:50:39;;;;;;;28.48;17.13;;;;;;;;;;5012567;28;93102;-66
2023/05/11 10:53:17;;;;;;;24.65;17.45;;;;;;;;;;4997369;28;93432;-65
2023/05/11 10:56:22;;;;;;;30.33;19.92;;;;;;;;;;5004458;28;92595;-65
2023/05/11 10:58:58;;;;;;;32.47;19.52;;;;;;;;;;4979786;28;94408;-65
2023/05/11 11:01:38;;;;;;;37.00;21.73;;;;;;;;;;4984977;28;91707;-65
2023/05/11 11:04:05;;;;;;;;;;;;;;;;;;4973059;28;92639;-65
2023/05/11 11:06:32;;;;;;;35.17;19.63;;;;;;;;;;4972712;28;124227;-65
2023/05/11 11:08:59;;;;;;;28.48;15.65;;;;;;;;;;4969444;28;95009;-65
2023/05/11 11:11:31;;;;;;;27.83;15.25;;;;;;;;;;4976249;28;95881;-65
2023/05/11 11:14:01;;;;;;;21.73;13.95;;;;;;;;;;4989171;28;93753;-64
2023/05/11 11:16:28;;;;;;;19.67;12.10;;;;;;;;;;4973894;28;92469;-64
2023/05/11 11:19:13;;;;;;;24.08;11.60;;;;;;;;;;4996835;28;93674;-66
2023/05/11 11:21:41;;;;;;;18.55;11.20;;;;;;;;;;4987404;28;94175;-64
2023/05/11 11:24:07;;;;;;;16.92;9.43;;;;;;;;;;4987513;28;93458;-64
2023/05/11 11:26:47;;;;;;;14.57;9.43;;;;;;;;;;4980539;28;93457;-64
2023/05/11 11:29:13;;;;;;;16.73;9.27;;;;;;;;;;4991190;28;92778;-64
2023/05/11 11:31:40;;;;;;;16.23;9.90;;;;;;;;;;5000245;28;93136;-65
2023/05/11 11:34:25;;;;;;;15.23;9.52;;;;;;;;;;5006485;28;96819;-65
2023/05/11 11:36:54;;;;;;;15.82;10.00;;;;;;;;;;5010892;28;92470;-64
2023/05/11 11:39:20;;;;;;;12.70;8.93;;;;;;;;;;5011465;28;93748;-64
2023/05/11 11:42:03;;;;;;;15.30;9.73;;;;;;;;;;5016086;28;93511;-65
2023/05/11 11:44:29;;;;;;;12.82;9.82;;;;;;;;;;5011748;28;92975;-65
2023/05/11 11:47:15;;;;;;;13.57;9.68;;;;;;;;;;5014036;27;95292;-64
2023/05/11 11:49:46;;;;;;;17.42;8.93;;;;;;;;;;5010832;28;92621;-64
2023/05/11 11:52:12;;;;;;;11.48;8.82;;;;;;;;;;5007863;28;93213;-64
2023/05/11 11:54:39;;;;;;;29.05;8.85;;;;;;;;;;4997007;28;93215;-64
2023/05/11 11:57:31;;;;;;;13.13;9.13;;;;;;;;;;5011969;28;92893;-64
2023/05/11 12:00:04;;;;;;;11.93;8.68;;;;;;;;;;4995084;28;95418;-64
2023/05/11 12:02:31;;;;;;;11.75;8.45;;;;;;;;;;4999761;28;94800;-64
2023/05/11 12:05:09;;;;;;;10.93;7.72;;;;;;;;;;5016365;28;92480;-64
2023/05/11 12:07:38;;;;;;;16.45;8.93;;;;;;;;;;4998156;28;94324;-64
2023/05/11 12:10:04;;;;;;;13.45;9.73;;;;;;;;;;4993291;28;93009;-64
2023/05/11 12:12:31;;;;;;;15.75;10.00;;;;;;;;;;4993739;28;94006;-64
2023/05/11 12:14:58;;;;;;;16.33;10.40;;;;;;;;;;4995268;28;93208;-64
2023/05/11 12:17:26;;;;;;;15.40;10.48;;;;;;;;;;5008499;28;91776;-64
2023/05/11 12:19:53;;;;;;;19.48;12.10;;;;;;;;;;5016084;28;93383;-64
2023/05/11 12:22:24;;;;;;;14.65;9.82;;;;;;;;;;5015884;28;94777;-65
2023/05/11 12:24:53;;;;;;;14.93;9.70;;;;;;;;;;5000407;28;94967;-64
2023/05/11 12:27:19;;;;;;;13.43;8.50;;;;;;;;;;4996568;28;93509;-65
2023/05/11 12:29:49;;;;;;;11.40;8.38;;;;;;;;;;4996724;28;92493;-64
2023/05/11 12:32:26;;;;;;;10.85;8.10;;;;;;;;;;4996876;28;92962;-64
2023/05/11 12:35:05;;;;;;;9.60;7.10;;;;;;;;;;4996485;28;93681;-65
2023/05/11 12:37:31;;;;;;;11.65;7.95;;;;;;;;;;4996745;28;92880;-64
2023/05/11 12:39:58;;;;;;;10.57;7.45;;;;;;;;;;4997248;28;94318;-64
2023/05/11 12:42:25;;;;;;;9.68;7.72;;;;;;;;;;5007464;28;92516;-64
2023/05/11 12:44:51;;;;;;;12.82;8.00;;;;;;;;;;5016414;28;92426;-65
2023/05/11 12:47:17;;;;;;;15.30;9.30;;;;;;;;;;5019239;28;92356;-65
2023/05/11 12:49:44;;;;;;;13.15;9.02;;;;;;;;;;5014630;28;94931;-65
2023/05/11 12:52:12;;;;;;;16.02;9.82;;;;;;;;;;5016257;28;96431;-65
2023/05/11 12:54:39;;;;;;;15.02;9.55;;;;;;;;;;5016246;28;93645;-65
2023/05/11 12:57:21;;;;;;;13.68;9.65;;;;;;;;;;5016064;28;92434;-64
2023/05/11 12:59:47;;;;;;;17.27;10.65;;;;;;;;;;5016429;28;94164;-66
2023/05/11 13:02:19;;;;;;;16.92;9.35;;;;;;;;;;5014538;28;93794;-66
2023/05/11 13:04:46;;;;;;;15.75;10.13;;;;;;;;;;5031012;28;93575;-64
2023/05/11 13:07:13;;;;;;;18.75;10.98;;;;;;;;;;5015977;28;94800;-64
2023/05/11 13:09:40;;;;;;;15.02;10.82;;;;;;;;;;5017919;28;93446;-64
2023/05/11 13:12:07;;;;;;;14.25;9.93;;;;;;;;;;5013595;28;92494;-64
2023/05/11 13:14:33;;;;;;;13.55;9.70;;;;;;;;;;5001772;28;96272;-64
2023/05/11 13:17:00;;;;;;;13.05;10.07;;;;;;;;;;5004440;28;92585;-64
2023/05/11 13:19:27;;;;;;;12.05;9.27;;;;;;;;;;4996223;28;92405;-64
2023/05/11 13:21:55;;;;;;;12.63;9.02;;;;;;;;;;4995580;28;93429;-66
2023/05/11 13:24:21;;;;;;;13.55;9.48;;;;;;;;;;5030685;28;92532;-65
2023/05/11 13:26:48;;;;;;;15.90;10.20;;;;;;;;;;5015718;28;93114;-65
2023/05/11 13:29:15;;;;;;;12.77;9.85;;;;;;;;;;5014497;28;92484;-65
2023/05/11 13:31:45;;;;;;;14.27;9.80;;;;;;;;;;5019285;28;91683;-65
2023/05/11 13:34:11;;;;;;;;;;;;;;;;;;5015858;28;93185;-65
2023/05/11 13:36:38;;;;;;;14.07;9.43;;;;;;;;;;5016289;28;119049;-65
2023/05/11 13:39:05;;;;;;;12.77;9.05;;;;;;;;;;5013803;28;94878;-65
2023/05/11 13:41:31;;;;;;;15.45;10.90;;;;;;;;;;5012505;28;93376;-65
2023/05/11 13:43:57;;;;;;;11.93;9.27;;;;;;;;;;5003868;28;92543;-65
2023/05/11 13:46:24;;;;;;;13.73;9.38;;;;;;;;;;5011323;28;94232;-64
2023/05/11 13:48:50;;;;;;;14.80;9.68;;;;;;;;;;5006551;28;93466;-66
2023/05/11 13:51:16;;;;;;;15.38;9.60;;;;;;;;;;5014767;28;92521;-67
2023/05/11 13:53:43;;;;;;;18.67;9.82;;;;;;;;;;5005715;28;94452;-64
2023/05/11 13:56:10;;;;;;;17.73;10.88;;;;;;;;;;5022190;28;91788;-65
2023/05/11 13:58:36;;;;;;;12.98;9.27;;;;;;;;;;5014431;28;92518;-65
2023/05/11 14:01:02;;;;;;;17.05;11.85;;;;;;;;;;5013424;28;94845;-66
2023/05/11 14:03:33;;;;;;;15.05;10.90;;;;;;;;;;4996671;28;94873;-65
2023/05/11 14:06:00;;;;;;;15.32;10.50;;;;;;;;;;5002231;28;95423;-65
2023/05/11 14:08:26;;;;;;;14.60;10.38;;;;;;;;;;5017078;28;93387;-66
2023/05/11 14:10:52;;;;;;;18.08;10.27;;;;;;;;;;5026337;28;92543;-64
2023/05/11 14:13:19;;;;;;;14.32;10.13;;;;;;;;;;5030020;27;93294;-65
2023/05/11 14:15:45;;;;;;;11.82;7.22;;;;;;;;;;5008541;28;94780;-65
2023/05/11 14:18:11;;;;;;;9.90;6.75;;;;;;;;;;5015798;28;92505;-65
2023/05/11 14:20:41;;;;;;;10.25;7.43;;;;;;;;;;5005974;27;92723;-66
2023/05/11 14:23:07;;;;;;;8.98;7.05;;;;;;;;;;5021313;28;92616;-66
2023/05/11 14:25:35;;;;;;;10.95;6.15;;;;;;;;;;5000050;28;93118;-65